Главная страница
METAR-TAF:

METAR-TAF

Аэропорты :

York Airport

Йорк, Пенсильвания, США

широта: 39-55-10N, долгота: 076-52-37W, высота над уровнем моря: 146 м

Текущие метеонаблюдения

Эта сводка был подготовлена 43 минут назад, в 10:53 UTC
Штиль
Температура -3°C
Влажность 80%
Давление 1026 hPa
Видимость: 8.0 км
ясное небо
мгла

METAR: KTHV 241053Z AUTO 00000KT 5SM HZ CLR M03/M06 A3031 RMK AO2 SLP273 T10331061

Время: 06:36 (11:36 UTC)


TAF: отсутствует

Метеонаблюдения и прогнозы для более 4000 аэропортов (сводки METAR и TAF).

Имеющиеся станции представлены на карте желтыми и красными точками.

Чтобы увидеть название станции, наведите на нее мышь.

Затем щелкните, чтобы увидеть метеонаблюдения и метеопрогнозы.

Управление картой: чтобы увеличить масштаб, щелкните зеленые кнопки с черным крестиком; чтобы уменьшить масштаб, щелкните зеленую кнопку с тире; для просмотра соседних карт щелкайте зеленые стрелки.


METAR-TAF: